Time;durP1;ratioP1;P1;durP2;ratioP2;P2;SDS_P1;SDS_P2;PMS_P1;PMS_P2;Temp;Humidity;BMP_temperature;BMP_pressure;BME280_temperature;BME280_humidity;BME280_pressure;Samples;Min_cycle;Max_cycle;Signal;HPM_P1;HPM_P2
2020/12/30 00:00:06;;;;;;;17.48;7.68;;;3.30;90.10;;;;;;4991160;28;20034;-88
2020/12/30 00:02:31;;;;;;;17.25;8.35;;;3.20;90.20;;;;;;4992662;28;20098;-87
2020/12/30 00:04:58;;;;;;;18.08;8.65;;;3.30;90.30;;;;;;4992213;28;20101;-88
2020/12/30 00:07:24;;;;;;;19.52;9.27;;;3.30;90.40;;;;;;4989717;28;20485;-87
2020/12/30 00:09:50;;;;;;;15.60;8.23;;;3.30;90.50;;;;;;4990757;28;20031;-87
2020/12/30 00:12:19;;;;;;;16.67;8.55;;;3.30;90.50;;;;;;4990813;28;20379;-87
2020/12/30 00:14:45;;;;;;;17.77;7.80;;;3.30;90.40;;;;;;4992274;28;20026;-87
2020/12/30 00:17:11;;;;;;;16.98;7.72;;;3.30;90.40;;;;;;4973128;28;20364;-86
2020/12/30 00:19:37;;;;;;;17.02;8.35;;;3.30;90.40;;;;;;4991662;28;20043;-87
2020/12/30 00:22:11;;;;;;;15.10;8.00;;;3.20;90.40;;;;;;4990901;28;20545;-88
2020/12/30 00:24:38;;;;;;;12.13;7.45;;;3.20;90.50;;;;;;4980346;28;20077;-89
2020/12/30 00:27:05;;;;;;;14.10;7.65;;;3.20;90.50;;;;;;4989802;28;20054;-87
2020/12/30 00:29:31;;;;;;;17.05;7.70;;;3.20;90.70;;;;;;4992785;28;20034;-88
2020/12/30 00:31:57;;;;;;;17.50;7.85;;;3.10;90.70;;;;;;4992664;28;20105;-87
2020/12/30 00:34:22;;;;;;;17.13;8.27;;;3.10;90.80;;;;;;4986690;28;20049;-87
2020/12/30 00:36:48;;;;;;;12.95;6.80;;;3.10;90.60;;;;;;4995779;28;20050;-88
2020/12/30 00:39:14;;;;;;;16.83;8.45;;;3.10;90.70;;;;;;4993169;28;20030;-86
2020/12/30 00:41:39;;;;;;;19.58;8.10;;;3.00;90.70;;;;;;4990900;28;20113;-87
2020/12/30 00:44:06;;;;;;;15.77;8.02;;;3.10;90.90;;;;;;4986312;28;20386;-88
2020/12/30 00:46:32;;;;;;;18.10;7.80;;;3.10;90.80;;;;;;4990791;28;20101;-87
2020/12/30 00:48:57;;;;;;;17.38;7.82;;;3.10;90.70;;;;;;4990731;28;20018;-86
2020/12/30 00:51:23;;;;;;;18.52;9.73;;;3.10;90.70;;;;;;4991028;28;20018;-87
2020/12/30 00:53:49;;;;;;;15.32;7.47;;;3.10;90.70;;;;;;4991286;28;20026;-89
2020/12/30 00:56:14;;;;;;;13.70;7.68;;;3.10;90.90;;;;;;4991871;28;20022;-88
2020/12/30 00:58:40;;;;;;;18.05;8.57;;;3.10;91.20;;;;;;4988354;28;20045;-87
2020/12/30 01:01:07;;;;;;;19.17;8.38;;;3.10;91.60;;;;;;4990923;28;20045;-87
2020/12/30 01:03:34;;;;;;;15.57;7.40;;;3.00;91.50;;;;;;4989732;28;20027;-87
2020/12/30 01:06:03;;;;;;;16.30;7.93;;;3.00;91.60;;;;;;4985632;28;20026;-88
2020/12/30 01:08:29;;;;;;;17.05;7.80;;;3.10;91.60;;;;;;4987742;28;20019;-87
2020/12/30 01:10:55;;;;;;;15.00;8.02;;;3.10;91.70;;;;;;4975056;28;20031;-88
2020/12/30 01:13:21;;;;;;;16.27;8.10;;;3.20;91.80;;;;;;4985865;28;20501;-88
2020/12/30 01:15:47;;;;;;;12.65;7.40;;;3.30;91.50;;;;;;4973265;28;20375;-88
2020/12/30 01:18:13;;;;;;;16.60;8.27;;;3.30;91.50;;;;;;4989377;28;20042;-88
2020/12/30 01:20:38;;;;;;;16.63;8.48;;;3.30;91.40;;;;;;4990864;28;20034;-88
2020/12/30 01:23:04;;;;;;;14.85;7.45;;;3.40;91.30;;;;;;4990100;28;20033;-88
2020/12/30 01:25:30;;;;;;;15.32;7.38;;;3.40;91.20;;;;;;4988926;28;20022;-89
2020/12/30 01:27:56;;;;;;;14.10;7.53;;;3.50;91.10;;;;;;4988708;28;20117;-88
2020/12/30 01:30:22;;;;;;;13.57;7.43;;;3.50;91.10;;;;;;4990975;28;20034;-88
2020/12/30 01:32:48;;;;;;;16.27;7.82;;;3.50;91.10;;;;;;4988822;28;20023;-88
2020/12/30 01:35:13;;;;;;;17.48;8.00;;;3.60;91.00;;;;;;4990199;28;20156;-88
2020/12/30 01:37:40;;;;;;;17.13;7.53;;;3.50;90.90;;;;;;4988598;28;20061;-87
2020/12/30 01:40:06;;;;;;;18.42;8.02;;;3.60;91.00;;;;;;4988386;28;20489;-87
2020/12/30 01:42:45;;;;;;;16.63;7.97;;;3.70;91.00;;;;;;4988710;28;20501;-88
2020/12/30 01:45:12;;;;;;;17.80;8.00;;;3.60;91.00;;;;;;4984720;28;20422;-88
2020/12/30 01:47:38;;;;;;;12.98;7.30;;;3.60;91.00;;;;;;4990461;28;20493;-88
2020/12/30 01:50:07;;;;;;;14.25;7.38;;;3.60;91.10;;;;;;4990633;28;20030;-88
2020/12/30 01:52:33;;;;;;;16.05;7.32;;;3.50;91.10;;;;;;4973455;28;20027;-89
2020/12/30 01:54:59;;;;;;;13.77;6.85;;;3.60;91.30;;;;;;5003883;28;20022;-87
2020/12/30 01:57:25;;;;;;;14.50;7.30;;;3.60;91.20;;;;;;4990776;28;20026;-87
2020/12/30 01:59:53;;;;;;;16.10;6.82;;;3.60;91.20;;;;;;4989276;28;20034;-88
2020/12/30 02:02:23;;;;;;;12.60;6.43;;;3.60;91.30;;;;;;4990555;28;20029;-87
2020/12/30 02:04:52;;;;;;;13.23;6.80;;;3.50;91.30;;;;;;4988874;28;20046;-88
2020/12/30 02:07:19;;;;;;;12.55;6.75;;;3.60;91.40;;;;;;4988912;28;20036;-88
2020/12/30 02:09:45;;;;;;;14.48;6.75;;;3.60;91.30;;;;;;4990437;28;20034;-85
2020/12/30 02:12:12;;;;;;;12.05;6.53;;;3.60;91.40;;;;;;4989742;28;20353;-88
2020/12/30 02:14:38;;;;;;;12.57;6.78;;;3.60;91.40;;;;;;4988372;28;20158;-87
2020/12/30 02:17:04;;;;;;;15.30;7.45;;;3.60;91.50;;;;;;4991191;28;20126;-88
2020/12/30 02:19:30;;;;;;;13.32;6.47;;;3.60;91.50;;;;;;4987413;28;20026;-87
2020/12/30 02:22:02;;;;;;;11.52;6.68;;;3.70;91.40;;;;;;4990609;28;20433;-88
2020/12/30 02:24:32;;;;;;;15.65;6.63;;;3.80;91.40;;;;;;4988128;28;20039;-88
2020/12/30 02:26:59;;;;;;;13.77;6.90;;;3.80;91.10;;;;;;4982724;28;20149;-88
2020/12/30 02:29:25;;;;;;;12.70;6.80;;;3.80;91.00;;;;;;4991718;28;20049;-89
2020/12/30 02:31:51;;;;;;;11.77;6.68;;;3.80;91.10;;;;;;4988422;28;20097;-89
2020/12/30 02:34:17;;;;;;;15.43;7.55;;;3.80;91.20;;;;;;4974034;28;20177;-88
2020/12/30 02:36:43;;;;;;;13.98;6.78;;;3.80;91.10;;;;;;4988138;28;20038;-88
2020/12/30 02:39:10;;;;;;;12.18;6.75;;;3.80;90.90;;;;;;4988083;28;20037;-88
2020/12/30 02:41:35;;;;;;;15.25;6.82;;;3.80;90.80;;;;;;4990233;28;20382;-88
2020/12/30 02:44:03;;;;;;;16.65;7.05;;;3.80;90.80;;;;;;4988659;28;20398;-87
2020/12/30 02:46:29;;;;;;;10.88;5.82;;;3.90;90.60;;;;;;4972632;28;20029;-88
2020/12/30 02:48:54;;;;;;;14.18;6.10;;;3.90;90.50;;;;;;4989624;28;20109;-88
2020/12/30 02:51:20;;;;;;;14.10;6.28;;;3.90;90.60;;;;;;4987406;28;20037;-88
2020/12/30 02:53:46;;;;;;;12.90;5.88;;;4.00;90.60;;;;;;4973101;28;20069;-88
2020/12/30 02:56:12;;;;;;;11.57;6.30;;;4.00;90.70;;;;;;4991266;28;20433;-87
2020/12/30 02:58:40;;;;;;;10.57;5.70;;;4.00;90.40;;;;;;4972361;28;20522;-88
2020/12/30 03:01:10;;;;;;;12.88;6.30;;;4.00;90.40;;;;;;4988265;28;20029;-87
2020/12/30 03:03:36;;;;;;;10.93;6.45;;;3.90;90.20;;;;;;4992100;28;20042;-87
2020/12/30 03:06:02;;;;;;;12.93;6.35;;;3.90;90.70;;;;;;4992088;28;20019;-88
2020/12/30 03:08:28;;;;;;;10.55;5.45;;;3.80;90.90;;;;;;4973692;28;20386;-87
2020/12/30 03:10:54;;;;;;;10.63;5.93;;;3.70;90.90;;;;;;4976236;28;20038;-88
2020/12/30 03:13:19;;;;;;;12.35;5.35;;;3.60;91.00;;;;;;4974451;28;20069;-87
2020/12/30 03:15:45;;;;;;;10.75;5.55;;;3.50;91.00;;;;;;4988914;28;20550;-87
2020/12/30 03:18:11;;;;;;;13.10;5.95;;;3.50;91.10;;;;;;4993673;28;20419;-88
2020/12/30 03:20:36;;;;;;;11.35;5.70;;;3.50;91.20;;;;;;5006478;28;20030;-87
2020/12/30 03:23:02;;;;;;;11.65;6.25;;;3.50;91.10;;;;;;4983284;28;20048;-87
2020/12/30 03:25:28;;;;;;;11.38;5.95;;;3.40;91.30;;;;;;4990539;28;20435;-87
2020/12/30 03:27:53;;;;;;;10.23;5.05;;;3.40;91.40;;;;;;4991193;28;20018;-88
2020/12/30 03:30:19;;;;;;;8.55;4.97;;;3.40;91.30;;;;;;4991986;28;20035;-87
2020/12/30 03:32:45;;;;;;;9.70;5.10;;;3.50;91.20;;;;;;4993320;28;20026;-88
2020/12/30 03:35:10;;;;;;;9.02;5.25;;;3.50;91.00;;;;;;4976523;28;20374;-87
2020/12/30 03:37:36;;;;;;;11.02;6.03;;;3.60;90.80;;;;;;4989298;28;20042;-87
2020/12/30 03:40:03;;;;;;;12.70;5.53;;;3.60;91.10;;;;;;4990433;28;20079;-87
2020/12/30 03:42:28;;;;;;;9.52;5.20;;;3.60;90.70;;;;;;4991900;28;20109;-87
2020/12/30 03:44:54;;;;;;;9.98;5.15;;;3.60;90.80;;;;;;4992409;28;20133;-87
2020/12/30 03:47:20;;;;;;;9.50;5.57;;;3.60;91.20;;;;;;4994511;28;20027;-87
2020/12/30 03:49:45;;;;;;;8.90;5.40;;;3.60;91.20;;;;;;4992270;28;20030;-87
2020/12/30 03:52:11;;;;;;;10.23;5.05;;;3.60;91.30;;;;;;4993197;28;20412;-87
2020/12/30 03:54:37;;;;;;;10.65;4.90;;;3.50;91.10;;;;;;4992330;28;20058;-87
2020/12/30 03:57:02;;;;;;;10.35;5.00;;;3.50;91.30;;;;;;4992539;28;20049;-88
2020/12/30 03:59:28;;;;;;;9.15;5.53;;;3.50;91.30;;;;;;4990140;28;20488;-87
2020/12/30 04:01:54;;;;;;;9.02;5.00;;;3.50;91.20;;;;;;4991322;28;20335;-87
2020/12/30 04:04:19;;;;;;;11.43;5.53;;;3.60;91.40;;;;;;4986537;28;20037;-88
2020/12/30 04:06:45;;;;;;;10.38;5.65;;;3.60;91.60;;;;;;4990690;28;20074;-87
2020/12/30 04:09:11;;;;;;;11.20;5.18;;;3.70;91.40;;;;;;4989388;28;20038;-87
2020/12/30 04:11:36;;;;;;;8.20;4.70;;;3.70;91.80;;;;;;4992947;28;20085;-88
2020/12/30 04:14:02;;;;;;;10.00;4.68;;;3.80;91.50;;;;;;4991658;28;20030;-87
2020/12/30 04:16:28;;;;;;;7.88;4.20;;;3.80;91.10;;;;;;4991294;28;20026;-88
2020/12/30 04:18:53;;;;;;;12.25;5.70;;;3.90;91.00;;;;;;4987569;28;20247;-88
2020/12/30 04:21:23;;;;;;;10.45;5.38;;;3.90;91.00;;;;;;4992955;28;20173;-87
2020/12/30 04:23:50;;;;;;;14.68;5.63;;;4.00;91.30;;;;;;4992115;28;20474;-88
2020/12/30 04:26:17;;;;;;;11.57;5.95;;;4.00;91.40;;;;;;4990474;28;20045;-89
2020/12/30 04:28:42;;;;;;;14.68;7.35;;;4.10;91.60;;;;;;4990655;28;20050;-87
2020/12/30 04:31:12;;;;;;;12.35;6.05;;;4.10;91.70;;;;;;4988475;28;20143;-88
2020/12/30 04:33:38;;;;;;;15.18;7.10;;;4.20;91.80;;;;;;4991452;28;20026;-87
2020/12/30 04:36:04;;;;;;;15.63;6.70;;;4.20;91.70;;;;;;4988528;28;20070;-88
2020/12/30 04:38:32;;;;;;;13.55;6.22;;;4.20;91.80;;;;;;4993161;28;20030;-87
2020/12/30 04:41:06;;;;;;;10.77;5.25;;;4.20;91.90;;;;;;4989981;28;20025;-88
2020/12/30 04:43:34;;;;;;;10.77;5.88;;;4.30;91.80;;;;;;4988560;28;20038;-89
2020/12/30 04:46:01;;;;;;;11.15;6.07;;;4.30;92.20;;;;;;4988565;28;20041;-89
2020/12/30 04:48:27;;;;;;;14.05;6.47;;;4.40;92.50;;;;;;4977566;28;20501;-87
2020/12/30 04:50:53;;;;;;;7.78;5.05;;;4.50;92.70;;;;;;4991280;28;22813;-87
2020/12/30 04:53:23;;;;;;;10.95;5.43;;;4.50;92.70;;;;;;4991870;28;20045;-87
2020/12/30 04:55:52;;;;;;;10.07;4.95;;;4.50;92.70;;;;;;4989741;28;20022;-87
2020/12/30 04:58:23;;;;;;;9.55;5.10;;;4.50;92.70;;;;;;4990670;28;20025;-87
2020/12/30 05:00:50;;;;;;;9.23;5.10;;;4.50;92.90;;;;;;4988335;28;20019;-87
2020/12/30 05:03:21;;;;;;;10.80;5.05;;;4.60;93.10;;;;;;4989889;28;20669;-87
2020/12/30 05:05:46;;;;;;;10.15;4.43;;;4.60;93.20;;;;;;4988912;28;20479;-88
2020/12/30 05:08:14;;;;;;;9.52;4.72;;;4.70;93.30;;;;;;4992494;28;20053;-88
2020/12/30 05:10:42;;;;;;;7.35;4.22;;;4.80;93.50;;;;;;4989404;28;20029;-88
2020/12/30 05:13:08;;;;;;;8.18;4.30;;;4.80;93.60;;;;;;4988239;28;20038;-88
2020/12/30 05:15:34;;;;;;;7.53;4.07;;;4.80;93.70;;;;;;4989227;28;20108;-87
2020/12/30 05:18:04;;;;;;;9.35;4.57;;;4.90;93.80;;;;;;4974465;28;20042;-87
2020/12/30 05:20:35;;;;;;;7.88;3.90;;;4.90;93.80;;;;;;4987899;28;20033;-87
2020/12/30 05:23:03;;;;;;;6.53;3.40;;;5.00;94.20;;;;;;4989085;28;20034;-87
2020/12/30 05:25:28;;;;;;;7.35;3.45;;;5.00;94.30;;;;;;4987956;28;20045;-85
2020/12/30 05:27:55;;;;;;;6.10;3.58;;;5.10;94.40;;;;;;4988104;28;20030;-87
2020/12/30 05:30:24;;;;;;;7.03;3.67;;;5.10;94.40;;;;;;4988203;28;20557;-86
2020/12/30 05:32:53;;;;;;;8.27;3.78;;;5.20;94.40;;;;;;4990986;28;20033;-86
2020/12/30 05:35:21;;;;;;;7.03;3.80;;;5.20;94.50;;;;;;4991395;28;20478;-86
2020/12/30 05:37:47;;;;;;;8.85;4.05;;;5.30;94.50;;;;;;4989697;28;20046;-86
2020/12/30 05:40:31;;;;;;;8.30;4.55;;;5.30;94.50;;;;;;4988127;28;20041;-86
2020/12/30 05:43:16;;;;;;;7.40;4.03;;;5.30;94.50;;;;;;4987880;28;20019;-86
2020/12/30 05:45:52;;;;;;;8.85;4.28;;;5.40;94.40;;;;;;4988718;28;20035;-87
2020/12/30 05:48:19;;;;;;;7.30;3.85;;;5.40;94.40;;;;;;4980595;28;20030;-87
2020/12/30 05:50:57;;;;;;;11.57;4.03;;;5.40;94.30;;;;;;4990672;28;20478;-86
2020/12/30 05:53:24;;;;;;;7.00;3.85;;;5.40;94.30;;;;;;4990835;28;20433;-87
2020/12/30 05:55:51;;;;;;;9.88;4.30;;;5.50;94.30;;;;;;4986364;28;20128;-88
2020/12/30 05:58:18;;;;;;;6.47;3.58;;;5.50;94.20;;;;;;4989164;28;20474;-86
2020/12/30 06:00:45;;;;;;;9.90;4.40;;;5.50;94.30;;;;;;4989669;28;20482;-87
2020/12/30 06:03:14;;;;;;;8.48;4.05;;;5.60;94.30;;;;;;4982418;28;20022;-88
2020/12/30 06:05:40;;;;;;;7.90;3.83;;;5.70;94.30;;;;;;4990996;28;20042;-87
2020/12/30 06:08:06;;;;;;;8.38;4.03;;;5.70;94.20;;;;;;4971567;28;20839;-87
2020/12/30 06:10:32;;;;;;;6.95;4.13;;;5.70;94.10;;;;;;4987300;28;20076;-87
2020/12/30 06:13:01;;;;;;;9.25;4.47;;;5.70;94.10;;;;;;4988416;28;20077;-86
2020/12/30 06:15:31;;;;;;;9.13;4.20;;;5.70;94.00;;;;;;4972004;28;20030;-88
2020/12/30 06:18:09;;;;;;;6.32;3.85;;;5.70;94.00;;;;;;4983557;28;20030;-86
2020/12/30 06:20:36;;;;;;;8.80;3.70;;;5.70;93.90;;;;;;4990600;28;20385;-86
2020/12/30 06:23:09;;;;;;;5.95;3.35;;;5.70;93.90;;;;;;4973774;28;20062;-87
2020/12/30 06:25:37;;;;;;;4.60;3.20;;;5.70;93.90;;;;;;4988354;28;20104;-86
2020/12/30 06:28:23;;;;;;;6.60;4.50;;;5.70;93.70;;;;;;4989342;28;20018;-87
2020/12/30 06:30:50;;;;;;;7.95;4.25;;;5.60;93.60;;;;;;4988807;28;20088;-87
2020/12/30 06:33:23;;;;;;;6.75;4.15;;;5.60;93.70;;;;;;4988870;28;20022;-87
2020/12/30 06:35:54;;;;;;;11.75;4.22;;;5.60;93.60;;;;;;4990488;28;20042;-88
2020/12/30 06:38:24;;;;;;;7.18;4.47;;;5.50;93.40;;;;;;4994047;28;20129;-87
2020/12/30 06:40:53;;;;;;;7.28;4.15;;;5.40;93.40;;;;;;4976493;28;20378;-87
2020/12/30 06:43:47;;;;;;;7.75;4.28;;;5.40;93.50;;;;;;4977268;28;20030;-86
2020/12/30 06:46:33;;;;;;;6.85;3.58;;;5.50;93.50;;;;;;4999572;28;20026;-87
2020/12/30 06:49:04;;;;;;;8.00;4.22;;;5.50;93.30;;;;;;4973821;28;20081;-87
2020/12/30 06:51:40;;;;;;;;;;;5.60;93.40;;;;;;4991042;28;20030;-86
2020/12/30 06:54:06;;;;;;;7.28;3.80;;;5.60;93.60;;;;;;4990997;28;19953;-87
2020/12/30 06:56:42;;;;;;;8.65;4.28;;;5.60;93.60;;;;;;4995148;28;20129;-87
2020/12/30 06:59:09;;;;;;;8.23;5.07;;;5.70;93.70;;;;;;4992566;28;20031;-87
2020/12/30 07:01:54;;;;;;;11.88;6.68;;;5.60;93.70;;;;;;4989835;28;20042;-87
2020/12/30 07:04:20;;;;;;;12.63;6.85;;;5.60;93.70;;;;;;4989555;28;20035;-87
2020/12/30 07:06:46;;;;;;;11.05;6.18;;;5.60;93.90;;;;;;4988773;28;20480;-86
2020/12/30 07:09:14;;;;;;;12.20;5.80;;;5.60;93.90;;;;;;4990323;28;20027;-86
2020/12/30 07:11:51;;;;;;;11.77;6.68;;;5.60;94.00;;;;;;4994284;28;20022;-87
2020/12/30 07:14:22;;;;;;;12.32;7.40;;;5.50;94.00;;;;;;4977382;28;20022;-87
2020/12/30 07:16:59;;;;;;;12.75;6.97;;;5.60;93.90;;;;;;4991608;28;20379;-86
2020/12/30 07:19:29;;;;;;;15.52;7.00;;;5.60;93.90;;;;;;4987494;28;20052;-87
2020/12/30 07:22:14;;;;;;;15.45;7.68;;;5.60;93.80;;;;;;4992752;28;20027;-86
2020/12/30 07:24:48;;;;;;;12.93;7.03;;;5.60;93.70;;;;;;4992001;28;20041;-87
2020/12/30 07:27:16;;;;;;;11.18;7.03;;;5.70;93.60;;;;;;4992115;28;20053;-86
2020/12/30 07:29:43;;;;;;;12.43;7.15;;;5.60;93.50;;;;;;4981821;28;20026;-87
2020/12/30 07:32:10;;;;;;;13.65;8.13;;;5.60;93.50;;;;;;4975147;28;20381;-88
2020/12/30 07:34:46;;;;;;;13.10;7.72;;;5.60;93.70;;;;;;4990637;28;20033;-87
2020/12/30 07:37:13;;;;;;;12.68;7.03;;;5.60;93.80;;;;;;4967879;28;20050;-87
2020/12/30 07:39:41;;;;;;;11.68;6.55;;;5.60;93.50;;;;;;4963705;28;20115;-87
2020/12/30 07:42:19;;;;;;;7.63;5.53;;;5.50;93.30;;;;;;4970996;28;20027;-88
2020/12/30 07:44:55;;;;;;;11.13;6.05;;;5.50;93.30;;;;;;4963334;28;20035;-87
2020/12/30 07:47:23;;;;;;;12.60;6.30;;;5.50;93.10;;;;;;4973139;28;20031;-87
2020/12/30 07:49:49;;;;;;;18.52;6.97;;;5.60;92.90;;;;;;4968585;28;20079;-87
2020/12/30 07:52:15;;;;;;;16.17;6.13;;;5.50;92.80;;;;;;4972886;28;20036;-87
2020/12/30 07:54:41;;;;;;;14.32;6.38;;;5.50;92.70;;;;;;4972905;28;20099;-87
2020/12/30 07:57:13;;;;;;;9.48;6.20;;;5.50;92.80;;;;;;5002194;28;20090;-86
2020/12/30 07:59:47;;;;;;;13.82;6.35;;;5.50;92.60;;;;;;4970876;28;20031;-87
2020/12/30 08:02:15;;;;;;;9.25;6.45;;;5.50;92.80;;;;;;4973325;28;20027;-87
2020/12/30 08:04:43;;;;;;;11.88;6.68;;;5.50;92.80;;;;;;4969793;28;20546;-88
2020/12/30 08:07:10;;;;;;;9.90;5.60;;;5.50;92.90;;;;;;4970983;28;20065;-88
2020/12/30 08:09:37;;;;;;;11.27;6.47;;;5.50;92.90;;;;;;4971338;28;20019;-88
2020/12/30 08:12:08;;;;;;;10.35;6.32;;;5.50;92.90;;;;;;4972023;28;20035;-87
2020/12/30 08:14:37;;;;;;;10.52;5.75;;;5.60;92.80;;;;;;4972541;28;20018;-87
2020/12/30 08:17:08;;;;;;;10.15;5.70;;;5.70;92.30;;;;;;4972433;28;20035;-87
2020/12/30 08:19:41;;;;;;;11.10;7.05;;;5.80;92.20;;;;;;4970628;28;20102;-87
2020/12/30 08:22:11;;;;;;;9.68;7.07;;;5.80;92.30;;;;;;4971243;28;20077;-87
2020/12/30 08:24:38;;;;;;;;;;;5.80;92.20;;;;;;4972309;28;20035;-87
2020/12/30 08:27:04;;;;;;;9.10;6.55;;;5.70;92.10;;;;;;4971250;28;19913;-88
2020/12/30 08:29:32;;;;;;;10.90;6.93;;;5.80;92.40;;;;;;4968871;28;20084;-88
2020/12/30 08:32:05;;;;;;;10.07;6.75;;;5.80;92.30;;;;;;4962655;28;20053;-87
2020/12/30 08:34:37;;;;;;;11.38;7.03;;;5.80;92.50;;;;;;4966679;28;20042;-88
2020/12/30 08:37:08;;;;;;;13.73;8.00;;;5.80;92.60;;;;;;4980777;28;20042;-87
2020/12/30 08:39:44;;;;;;;12.50;7.95;;;5.90;92.80;;;;;;4990504;28;20045;-87
2020/12/30 08:43:05;;;;;;;12.50;7.88;;;5.80;93.00;;;;;;4986074;28;20026;-87
2020/12/30 08:45:41;;;;;;;13.93;7.72;;;5.90;92.90;;;;;;4859108;29;20048;-87
2020/12/30 08:48:13;;;;;;;11.55;8.00;;;6.00;92.90;;;;;;4859901;29;20053;-87
2020/12/30 08:50:39;;;;;;;13.63;8.20;;;6.00;93.00;;;;;;4855513;29;20038;-87
2020/12/30 08:53:05;;;;;;;10.15;7.78;;;6.10;93.10;;;;;;4864511;29;20072;-88
2020/12/30 08:55:31;;;;;;;12.50;7.70;;;6.10;93.10;;;;;;4856765;29;20057;-87
2020/12/30 08:57:58;;;;;;;11.45;7.75;;;6.20;93.00;;;;;;4851872;29;20509;-87
2020/12/30 09:00:26;;;;;;;13.32;7.70;;;6.20;92.90;;;;;;4850682;29;20041;-87
2020/12/30 09:02:54;;;;;;;12.82;8.40;;;6.40;92.80;;;;;;4856767;29;20054;-87
2020/12/30 09:05:30;;;;;;;13.65;8.60;;;6.50;92.50;;;;;;4856189;29;20057;-87
2020/12/30 09:08:15;;;;;;;12.93;8.48;;;6.50;92.40;;;;;;4856277;29;20737;-85
2020/12/30 09:10:42;;;;;;;13.85;9.00;;;6.50;92.10;;;;;;4830189;29;20045;-87
2020/12/30 09:13:18;;;;;;;14.88;8.90;;;6.50;92.10;;;;;;4852935;29;20045;-88
2020/12/30 09:15:46;;;;;;;15.98;9.25;;;6.50;92.30;;;;;;4853821;29;20056;-86
2020/12/30 09:18:13;;;;;;;16.08;10.00;;;6.50;92.30;;;;;;4856057;29;20040;-87
2020/12/30 09:20:39;;;;;;;16.95;11.10;;;6.60;92.20;;;;;;4927088;29;20067;-87
2020/12/30 09:23:05;;;;;;;18.38;11.38;;;6.50;92.20;;;;;;4985516;28;20054;-87
2020/12/30 09:25:35;;;;;;;19.90;11.63;;;6.60;92.30;;;;;;4988224;28;20039;-87
2020/12/30 09:28:01;;;;;;;20.27;12.53;;;6.60;92.10;;;;;;4988162;28;20057;-87
2020/12/30 09:30:33;;;;;;;18.30;11.45;;;6.70;92.10;;;;;;4985425;28;20884;-88
2020/12/30 09:33:12;;;;;;;16.48;11.02;;;6.70;92.10;;;;;;4989074;28;20439;-89
2020/12/30 09:35:38;;;;;;;18.83;12.43;;;6.70;92.00;;;;;;4988624;28;20037;-88
2020/12/30 09:38:04;;;;;;;19.63;11.77;;;6.70;92.00;;;;;;4989744;28;20046;-88
2020/12/30 09:40:30;;;;;;;24.77;13.68;;;6.70;92.00;;;;;;4988182;28;20088;-89
2020/12/30 09:43:18;;;;;;;22.60;13.93;;;6.90;91.90;;;;;;4973444;28;20070;-89
2020/12/30 09:45:45;;;;;;;21.63;14.68;;;6.80;91.70;;;;;;4988043;28;20117;-90
2020/12/30 09:48:16;;;;;;;23.10;13.68;;;6.80;91.90;;;;;;4987550;28;20555;-89
2020/12/30 09:50:43;;;;;;;22.67;13.63;;;6.90;92.00;;;;;;4986197;28;20073;-89
2020/12/30 09:53:10;;;;;;;23.67;13.60;;;6.80;92.10;;;;;;4989165;28;20070;-89
2020/12/30 09:55:36;;;;;;;24.58;14.75;;;6.80;92.20;;;;;;4989758;28;20026;-89
2020/12/30 09:58:02;;;;;;;22.75;13.40;;;6.70;92.30;;;;;;4988384;28;20022;-89
2020/12/30 10:00:28;;;;;;;21.55;13.30;;;6.70;92.40;;;;;;4989403;28;20044;-89
2020/12/30 10:02:54;;;;;;;20.63;13.60;;;6.70;92.30;;;;;;4988913;28;20034;-89
2020/12/30 10:05:20;;;;;;;20.27;14.27;;;6.70;92.60;;;;;;4989702;28;20398;-89
2020/12/30 10:07:45;;;;;;;18.67;13.65;;;6.70;92.70;;;;;;4987029;28;20038;-89
2020/12/30 10:10:11;;;;;;;20.60;13.40;;;6.70;93.00;;;;;;4989177;28;20430;-88
2020/12/30 10:12:40;;;;;;;21.13;13.95;;;6.70;92.60;;;;;;4992151;28;20473;-89
2020/12/30 10:15:10;;;;;;;21.70;14.25;;;6.70;92.50;;;;;;4991379;28;20026;-87
2020/12/30 10:17:36;;;;;;;26.73;15.53;;;6.70;92.80;;;;;;4993926;28;20405;-91
2020/12/30 10:20:04;;;;;;;20.70;14.48;;;6.70;92.80;;;;;;4993672;28;20391;-90
2020/12/30 10:22:31;;;;;;;28.27;17.15;;;6.70;92.70;;;;;;4992842;28;20015;-89
2020/12/30 10:24:57;;;;;;;22.33;16.50;;;6.70;92.70;;;;;;4971348;28;20118;-87
2020/12/30 10:27:23;;;;;;;27.83;17.35;;;6.70;92.70;;;;;;4991605;28;20109;-89
2020/12/30 10:29:49;;;;;;;27.38;16.63;;;6.70;92.60;;;;;;4991151;28;20549;-89
2020/12/30 10:32:14;;;;;;;25.25;16.27;;;6.80;92.70;;;;;;4984894;28;20402;-90
2020/12/30 10:34:40;;;;;;;25.48;16.38;;;6.80;92.60;;;;;;4990427;28;20054;-89
2020/12/30 10:37:06;;;;;;;25.33;16.52;;;6.90;92.50;;;;;;4989429;28;20398;-89
2020/12/30 10:39:33;;;;;;;25.25;16.25;;;6.90;92.30;;;;;;4989245;28;20034;-88
2020/12/30 10:41:59;;;;;;;26.67;16.58;;;7.00;92.10;;;;;;4989298;28;20029;-89
2020/12/30 10:44:26;;;;;;;26.17;16.05;;;7.00;92.20;;;;;;4991749;28;20050;-90
2020/12/30 10:46:54;;;;;;;24.85;16.15;;;7.00;91.90;;;;;;4991601;28;20031;-88
2020/12/30 10:49:21;;;;;;;23.90;15.80;;;7.10;91.80;;;;;;4991212;28;20027;-87
2020/12/30 10:51:48;;;;;;;28.80;15.80;;;7.00;91.80;;;;;;4987655;28;20022;-89
2020/12/30 10:54:16;;;;;;;26.88;16.10;;;7.10;91.40;;;;;;4989744;28;20034;-87
2020/12/30 10:56:48;;;;;;;22.02;14.68;;;7.00;91.50;;;;;;4990015;28;21489;-88
2020/12/30 10:59:15;;;;;;;26.73;16.52;;;7.00;91.50;;;;;;4990239;28;20034;-89
2020/12/30 11:01:42;;;;;;;23.15;14.52;;;7.00;91.50;;;;;;4973654;28;20022;-88
2020/12/30 11:04:08;;;;;;;24.38;14.98;;;7.00;91.40;;;;;;4988469;28;20050;-89
2020/12/30 11:06:33;;;;;;;22.98;13.63;;;7.00;91.30;;;;;;4971213;28;20538;-87
2020/12/30 11:08:59;;;;;;;22.08;13.45;;;7.00;91.40;;;;;;4988817;28;20037;-88
2020/12/30 11:11:25;;;;;;;21.27;13.05;;;6.90;91.40;;;;;;4989783;28;20076;-88
2020/12/30 11:13:50;;;;;;;22.10;13.10;;;6.90;91.10;;;;;;4989845;28;20030;-89
2020/12/30 11:16:16;;;;;;;22.75;13.07;;;6.90;91.30;;;;;;4988326;28;20027;-89
2020/12/30 11:18:43;;;;;;;19.10;12.02;;;6.90;91.20;;;;;;4985978;28;20038;-90
2020/12/30 11:21:09;;;;;;;20.02;12.05;;;6.90;91.30;;;;;;4988079;28;20034;-87
2020/12/30 11:23:35;;;;;;;17.67;11.60;;;6.90;91.30;;;;;;4989262;28;20085;-88
2020/12/30 11:26:00;;;;;;;17.25;11.05;;;6.90;91.30;;;;;;5002634;28;20061;-89
2020/12/30 11:28:26;;;;;;;17.67;11.30;;;7.00;91.10;;;;;;4987723;28;20473;-89
2020/12/30 11:30:52;;;;;;;18.55;11.15;;;7.00;91.20;;;;;;4988470;28;20472;-88
2020/12/30 11:33:17;;;;;;;18.85;11.52;;;7.00;91.10;;;;;;4986301;28;20030;-89
2020/12/30 11:35:46;;;;;;;18.92;11.98;;;7.00;91.20;;;;;;4990129;28;20089;-88
2020/12/30 11:38:11;;;;;;;20.25;11.90;;;7.10;91.30;;;;;;4992807;28;20129;-88
2020/12/30 11:40:40;;;;;;;22.52;11.85;;;7.10;91.30;;;;;;4998066;28;20049;-89
2020/12/30 11:43:06;;;;;;;16.77;11.38;;;7.20;91.20;;;;;;4990666;28;20475;-89
2020/12/30 11:45:32;;;;;;;16.73;10.60;;;7.10;91.20;;;;;;4984610;28;20042;-90
2020/12/30 11:48:02;;;;;;;17.73;11.10;;;7.10;91.30;;;;;;4988756;28;20033;-89
2020/12/30 11:50:29;;;;;;;17.00;10.80;;;7.10;91.20;;;;;;4991664;28;20034;-87
2020/12/30 11:52:56;;;;;;;17.90;11.90;;;7.20;91.00;;;;;;4987872;28;20022;-88
2020/12/30 11:55:23;;;;;;;17.92;10.20;;;7.20;91.20;;;;;;4989676;28;20030;-89
2020/12/30 11:57:48;;;;;;;17.45;11.07;;;7.20;91.20;;;;;;4989922;28;20027;-88
2020/12/30 12:00:14;;;;;;;19.10;11.30;;;7.10;91.30;;;;;;4984041;28;20080;-89
2020/12/30 12:02:40;;;;;;;18.38;11.40;;;7.00;91.60;;;;;;4989374;28;20015;-88
2020/12/30 12:05:14;;;;;;;15.43;10.55;;;6.90;91.60;;;;;;4988048;28;20049;-88
2020/12/30 12:07:40;;;;;;;17.50;9.88;;;6.90;91.50;;;;;;4985609;28;20027;-89
2020/12/30 12:10:07;;;;;;;17.48;10.45;;;6.90;91.60;;;;;;4988160;28;20030;-90
2020/12/30 12:12:34;;;;;;;16.23;9.65;;;6.90;91.50;;;;;;4987510;28;20027;-87
2020/12/30 12:15:00;;;;;;;14.05;9.25;;;6.90;91.70;;;;;;4988678;28;20030;-87
2020/12/30 12:17:25;;;;;;;14.73;9.02;;;6.90;91.30;;;;;;4970078;28;20026;-89
2020/12/30 12:19:51;;;;;;;17.88;9.82;;;6.90;91.10;;;;;;4987546;28;20027;-88
2020/12/30 12:22:17;;;;;;;14.40;9.57;;;6.80;91.30;;;;;;4986964;28;20142;-88
2020/12/30 12:24:43;;;;;;;15.20;9.05;;;6.80;91.50;;;;;;4987447;28;20043;-88
2020/12/30 12:27:08;;;;;;;16.38;9.32;;;6.90;91.40;;;;;;4986756;28;20018;-88
2020/12/30 12:29:34;;;;;;;15.55;9.82;;;6.90;91.30;;;;;;4989012;28;20057;-87
2020/12/30 12:32:01;;;;;;;13.25;9.40;;;7.00;91.20;;;;;;4985573;28;20033;-88
2020/12/30 12:34:27;;;;;;;15.60;8.73;;;7.00;91.10;;;;;;4984738;28;20116;-88
2020/12/30 12:36:52;;;;;;;14.77;9.57;;;7.00;91.10;;;;;;4985338;28;20074;-88
2020/12/30 12:39:18;;;;;;;14.10;10.15;;;6.90;91.40;;;;;;4987756;28;20050;-87
2020/12/30 12:41:43;;;;;;;15.20;9.25;;;6.80;91.50;;;;;;4985151;28;20461;-89
2020/12/30 12:44:09;;;;;;;20.00;9.73;;;6.80;91.90;;;;;;4988562;28;20554;-87
2020/12/30 12:46:35;;;;;;;18.33;11.10;;;6.70;91.90;;;;;;4988113;28;20510;-87
2020/12/30 12:49:00;;;;;;;21.23;11.75;;;6.70;91.80;;;;;;4972254;28;20121;-86
2020/12/30 12:51:26;;;;;;;15.52;9.77;;;6.70;91.80;;;;;;4987954;28;20045;-87